PWSweather.com
Personal Weather Stations
Station Observations
PENICUIKWS
PenicuikGB

PenicuikGB

Lat: 55.830932, Lon: -3.224533000000065

Elevation: 166

Station Type: Fine Offset

http://weather.penicuik.org

High Low Average
Temperature 64.8°F18.2°C 38.3°F3.5°C 50.0°F10.0°C
Dew Point 45.3°F7.4°C 36.5°F2.5°C 41.6°F5.3°C
Winds 4.7 mph 7.6 kmh Calm Calm 2.0 mph SSW3.2 kmh SSW
Wind Gusts 7.6 mph12.2 kmh 0.7 mph1.1 kmh 3.0 mph4.8 kmh
Humidity 94% 43% 76%
Pressure 30.62 in1036.9 mb 30.49 in1032.5 mb -
Precipitation 0.00 in0.0 mm - -
Hour Temp Dew Point Humidity Winds Wind Gusts Pressure Precip Precip Rate Daily Precip Total
12:29 AM 38.8°F3.8°C 36.7°F2.6°C 92% 0.7 mph N1.1 kmh N 0.7 mph1.1 kmh 30.49 in1032.5 mb 0.00 in0.0 mm 0.00 in0.0 mm 0.00 in0.0 mm
12:59 AM 39.0°F3.9°C 36.9°F2.7°C 92% 0.7 mph N1.1 kmh N 0.7 mph1.1 kmh 30.50 in1032.8 mb 0.00 in0.0 mm 0.00 in0.0 mm 0.00 in0.0 mm
01:29 AM 39.7°F4.3°C 37.6°F3.1°C 92% 1.6 mph NNE2.6 kmh NNE 1.6 mph2.6 kmh 30.50 in1032.8 mb 0.00 in0.0 mm 0.00 in0.0 mm 0.00 in0.0 mm
01:59 AM 39.2°F4.0°C 36.8°F2.7°C 91% 2.2 mph W3.5 kmh W 2.2 mph3.5 kmh 30.51 in1033.2 mb 0.00 in0.0 mm 0.00 in0.0 mm 0.00 in0.0 mm
02:29 AM 38.8°F3.8°C 36.7°F2.6°C 92% 0.7 mph N1.1 kmh N 0.7 mph1.1 kmh 30.52 in1033.5 mb 0.00 in0.0 mm 0.00 in0.0 mm 0.00 in0.0 mm
02:59 AM 38.3°F3.5°C 36.5°F2.5°C 93% 0.7 mph N1.1 kmh N 0.7 mph1.1 kmh 30.52 in1033.5 mb 0.00 in0.0 mm 0.00 in0.0 mm 0.00 in0.0 mm
03:29 AM 38.7°F3.7°C 36.8°F2.7°C 93% 0.7 mph NE1.1 kmh NE 0.7 mph1.1 kmh 30.53 in1033.9 mb 0.00 in0.0 mm 0.00 in0.0 mm 0.00 in0.0 mm
03:59 AM 38.5°F3.6°C 36.6°F2.6°C 93% 1.6 mph W2.6 kmh W 1.6 mph2.6 kmh 30.52 in1033.5 mb 0.00 in0.0 mm 0.00 in0.0 mm 0.00 in0.0 mm
04:29 AM 38.8°F3.8°C 37.0°F2.8°C 93% 2.2 mph W3.5 kmh W 2.2 mph3.5 kmh 30.54 in1034.2 mb 0.00 in0.0 mm 0.00 in0.0 mm 0.00 in0.0 mm
04:59 AM 38.8°F3.8°C 37.0°F2.8°C 93% 1.6 mph S2.6 kmh S 1.6 mph2.6 kmh 30.54 in1034.2 mb 0.00 in0.0 mm 0.00 in0.0 mm 0.00 in0.0 mm
05:29 AM 39.0°F3.9°C 37.2°F2.9°C 93% 1.6 mph N2.6 kmh N 1.6 mph2.6 kmh 30.54 in1034.2 mb 0.00 in0.0 mm 0.00 in0.0 mm 0.00 in0.0 mm
05:59 AM 39.0°F3.9°C 37.2°F2.9°C 93% 1.6 mph W2.6 kmh W 1.6 mph2.6 kmh 30.55 in1034.5 mb 0.00 in0.0 mm 0.00 in0.0 mm 0.00 in0.0 mm
06:31 AM 39.4°F4.1°C 37.5°F3.1°C 93% 1.1 mph WSW1.8 kmh WSW 1.6 mph2.6 kmh 30.55 in1034.5 mb 0.00 in0.0 mm 0.00 in0.0 mm 0.00 in0.0 mm
06:45 AM 39.9°F4.4°C 38.1°F3.4°C 93% 1.5 mph SSW2.4 kmh SSW 1.6 mph2.6 kmh 30.55 in1034.5 mb 0.00 in0.0 mm 0.00 in0.0 mm 0.00 in0.0 mm
07:00 AM 41.0°F5.0°C 39.1°F3.9°C 93% 1.5 mph SSW2.4 kmh SSW 2.2 mph3.5 kmh 30.55 in1034.5 mb 0.00 in0.0 mm 0.00 in0.0 mm 0.00 in0.0 mm
07:15 AM 41.9°F5.5°C 40.0°F4.4°C 93% 1.8 mph SSW2.9 kmh SSW 3.8 mph6.1 kmh 30.56 in1034.9 mb 0.00 in0.0 mm 0.00 in0.0 mm 0.00 in0.0 mm
07:30 AM 43.7°F6.5°C 41.8°F5.4°C 93% 3.2 mph S5.1 kmh S 5.4 mph8.7 kmh 30.57 in1035.2 mb 0.00 in0.0 mm 0.00 in0.0 mm 0.00 in0.0 mm
07:45 AM 45.9°F7.7°C 42.8°F6.0°C 89% 3.2 mph SE5.1 kmh SE 6.0 mph9.7 kmh 30.56 in1034.9 mb 0.00 in0.0 mm 0.00 in0.0 mm 0.00 in0.0 mm
08:00 AM 49.5°F9.7°C 44.5°F6.9°C 83% 2.6 mph SW4.2 kmh SW 3.8 mph6.1 kmh 30.58 in1035.6 mb 0.00 in0.0 mm 0.00 in0.0 mm 0.00 in0.0 mm
08:15 AM 55.4°F13.0°C 43.4°F6.3°C 64% 3.1 mph SSW5.0 kmh SSW 4.5 mph7.2 kmh 30.58 in1035.6 mb 0.00 in0.0 mm 0.00 in0.0 mm 0.00 in0.0 mm
08:30 AM 60.1°F15.6°C 45.3°F7.4°C 58% 2.1 mph S3.4 kmh S 4.5 mph7.2 kmh 30.58 in1035.6 mb 0.00 in0.0 mm 0.00 in0.0 mm 0.00 in0.0 mm
08:45 AM 59.5°F15.3°C 42.9°F6.1°C 54% 3.9 mph S6.3 kmh S 7.6 mph12.2 kmh 30.59 in1035.9 mb 0.00 in0.0 mm 0.00 in0.0 mm 0.00 in0.0 mm
09:00 AM 60.6°F15.9°C 42.9°F6.1°C 52% 3.2 mph SSW5.1 kmh SSW 4.5 mph7.2 kmh 30.58 in1035.6 mb 0.00 in0.0 mm 0.00 in0.0 mm 0.00 in0.0 mm
09:15 AM 61.2°F16.2°C 42.4°F5.8°C 50% 3.2 mph SW5.1 kmh SW 3.8 mph6.1 kmh 30.59 in1035.9 mb 0.00 in0.0 mm 0.00 in0.0 mm 0.00 in0.0 mm
09:30 AM 62.2°F16.8°C 42.9°F6.1°C 49% 3.5 mph SSE5.6 kmh SSE 4.5 mph7.2 kmh 30.59 in1035.9 mb 0.00 in0.0 mm 0.00 in0.0 mm 0.00 in0.0 mm
09:45 AM 63.1°F17.3°C 43.1°F6.2°C 48% 2.9 mph SE4.7 kmh SE 3.8 mph6.1 kmh 30.60 in1036.2 mb 0.00 in0.0 mm 0.00 in0.0 mm 0.00 in0.0 mm
10:00 AM 64.8°F18.2°C 42.9°F6.1°C 45% 2.9 mph SW4.7 kmh SW 3.1 mph5.0 kmh 30.60 in1036.2 mb 0.00 in0.0 mm 0.00 in0.0 mm 0.00 in0.0 mm
10:15 AM 63.3°F17.4°C 40.5°F4.7°C 43% 2.9 mph S4.7 kmh S 3.8 mph6.1 kmh 30.60 in1036.2 mb 0.00 in0.0 mm 0.00 in0.0 mm 0.00 in0.0 mm
10:30 AM 58.3°F14.6°C 41.7°F5.4°C 54% 2.9 mph E4.7 kmh E 5.4 mph8.7 kmh 30.60 in1036.2 mb 0.00 in0.0 mm 0.00 in0.0 mm 0.00 in0.0 mm
11:15 AM 64.4°F18.0°C 42.6°F5.9°C 45% 4.7 mph NNW7.6 kmh NNW 7.6 mph12.2 kmh 30.61 in1036.6 mb 0.00 in0.0 mm 0.00 in0.0 mm 0.00 in0.0 mm
11:30 AM 60.3°F15.7°C 41.0°F5.0°C 49% 1.9 mph N3.1 kmh N 2.2 mph3.5 kmh 30.60 in1036.2 mb 0.00 in0.0 mm 0.00 in0.0 mm 0.00 in0.0 mm
11:45 AM 62.8°F17.1°C 42.3°F5.7°C 47% 2.5 mph ESE4.0 kmh ESE 3.8 mph6.1 kmh 30.61 in1036.6 mb 0.00 in0.0 mm 0.00 in0.0 mm 0.00 in0.0 mm
12:00 PM 63.7°F17.6°C 42.0°F5.6°C 45% 3.1 mph S5.0 kmh S 4.5 mph7.2 kmh 30.61 in1036.6 mb 0.00 in0.0 mm 0.00 in0.0 mm 0.00 in0.0 mm
12:15 PM 59.9°F15.5°C 41.7°F5.4°C 51% 1.9 mph E3.1 kmh E 2.2 mph3.5 kmh 30.60 in1036.2 mb 0.00 in0.0 mm 0.00 in0.0 mm 0.00 in0.0 mm
12:30 PM 60.4°F15.8°C 41.2°F5.1°C 49% 3.8 mph E6.1 kmh E 5.4 mph8.7 kmh 30.60 in1036.2 mb 0.00 in0.0 mm 0.00 in0.0 mm 0.00 in0.0 mm
01:15 PM 58.3°F14.6°C 41.2°F5.1°C 53% 2.7 mph SSW4.3 kmh SSW 5.4 mph8.7 kmh 30.61 in1036.6 mb 0.00 in0.0 mm 0.00 in0.0 mm 0.00 in0.0 mm
01:30 PM 56.8°F13.8°C 41.8°F5.4°C 57% 1.6 mph N2.6 kmh N 3.1 mph5.0 kmh 30.59 in1035.9 mb 0.00 in0.0 mm 0.00 in0.0 mm 0.00 in0.0 mm
01:45 PM 61.3°F16.3°C 43.6°F6.4°C 52% 2.5 mph SSE4.0 kmh SSE 4.5 mph7.2 kmh 30.60 in1036.2 mb 0.00 in0.0 mm 0.00 in0.0 mm 0.00 in0.0 mm
02:00 PM 63.1°F17.3°C 42.0°F5.6°C 46% 3.3 mph SW5.3 kmh SW 5.4 mph8.7 kmh 30.60 in1036.2 mb 0.00 in0.0 mm 0.00 in0.0 mm 0.00 in0.0 mm
02:15 PM 63.3°F17.4°C 42.2°F5.7°C 46% 3.1 mph SW5.0 kmh SW 5.4 mph8.7 kmh 30.60 in1036.2 mb 0.00 in0.0 mm 0.00 in0.0 mm 0.00 in0.0 mm
02:45 PM 64.0°F17.8°C 43.4°F6.3°C 47% 2.1 mph WSW3.4 kmh WSW 4.5 mph7.2 kmh 30.60 in1036.2 mb 0.00 in0.0 mm 0.00 in0.0 mm 0.00 in0.0 mm
03:00 PM 59.5°F15.3°C 40.9°F4.9°C 50% 2.3 mph E3.7 kmh E 3.8 mph6.1 kmh 30.59 in1035.9 mb 0.00 in0.0 mm 0.00 in0.0 mm 0.00 in0.0 mm
03:15 PM 56.5°F13.6°C 41.4°F5.2°C 57% 1.9 mph SSE3.1 kmh SSE 3.1 mph5.0 kmh 30.60 in1036.2 mb 0.00 in0.0 mm 0.00 in0.0 mm 0.00 in0.0 mm
03:30 PM 55.4°F13.0°C 42.6°F5.9°C 62% 2.6 mph S4.2 kmh S 3.8 mph6.1 kmh 30.60 in1036.2 mb 0.00 in0.0 mm 0.00 in0.0 mm 0.00 in0.0 mm
03:45 PM 55.2°F12.9°C 42.9°F6.1°C 63% 3.4 mph SSW5.5 kmh SSW 6.0 mph9.7 kmh 30.59 in1035.9 mb 0.00 in0.0 mm 0.00 in0.0 mm 0.00 in0.0 mm
04:15 PM 55.9°F13.3°C 43.1°F6.2°C 62% 3.7 mph SW6.0 kmh SW 5.4 mph8.7 kmh 30.59 in1035.9 mb 0.00 in0.0 mm 0.00 in0.0 mm 0.00 in0.0 mm
04:30 PM 54.9°F12.7°C 43.7°F6.5°C 66% 3.1 mph W5.0 kmh W 6.9 mph11.1 kmh 30.59 in1035.9 mb 0.00 in0.0 mm 0.00 in0.0 mm 0.00 in0.0 mm
05:00 PM 52.5°F11.4°C 42.7°F5.9°C 69% 2.5 mph SW4.0 kmh SW 3.8 mph6.1 kmh 30.60 in1036.2 mb 0.00 in0.0 mm 0.00 in0.0 mm 0.00 in0.0 mm
05:15 PM 52.0°F11.1°C 42.5°F5.8°C 70% 2.7 mph SW4.3 kmh SW 3.8 mph6.1 kmh 30.60 in1036.2 mb 0.00 in0.0 mm 0.00 in0.0 mm 0.00 in0.0 mm
05:30 PM 51.4°F10.8°C 43.1°F6.2°C 73% 1.7 mph SE2.7 kmh SE 3.1 mph5.0 kmh 30.60 in1036.2 mb 0.00 in0.0 mm 0.00 in0.0 mm 0.00 in0.0 mm
06:15 PM 49.1°F9.5°C 43.2°F6.2°C 80% 1.2 mph W1.9 kmh W 1.6 mph2.6 kmh 30.60 in1036.2 mb 0.00 in0.0 mm 0.00 in0.0 mm 0.00 in0.0 mm
06:30 PM 48.0°F8.9°C 43.1°F6.2°C 83% 1.5 mph WNW2.4 kmh WNW 3.1 mph5.0 kmh 30.61 in1036.6 mb 0.00 in0.0 mm 0.00 in0.0 mm 0.00 in0.0 mm
06:45 PM 47.5°F8.6°C 43.2°F6.2°C 85% 1.3 mph NW2.1 kmh NW 3.1 mph5.0 kmh 30.61 in1036.6 mb 0.00 in0.0 mm 0.00 in0.0 mm 0.00 in0.0 mm
07:00 PM 47.5°F8.6°C 43.5°F6.4°C 86% 1.8 mph W2.9 kmh W 4.5 mph7.2 kmh 30.61 in1036.6 mb 0.00 in0.0 mm 0.00 in0.0 mm 0.00 in0.0 mm
07:15 PM 47.3°F8.5°C 43.3°F6.3°C 86% 0.5 mph NW0.8 kmh NW 0.7 mph1.1 kmh 30.61 in1036.6 mb 0.00 in0.0 mm 0.00 in0.0 mm 0.00 in0.0 mm
07:30 PM 46.9°F8.3°C 43.3°F6.3°C 87% 0.3 mph NW0.5 kmh NW 1.6 mph2.6 kmh 30.61 in1036.6 mb 0.00 in0.0 mm 0.00 in0.0 mm 0.00 in0.0 mm
07:45 PM 47.1°F8.4°C 43.5°F6.4°C 87% 1.1 mph WNW1.8 kmh WNW 1.6 mph2.6 kmh 30.61 in1036.6 mb 0.00 in0.0 mm 0.00 in0.0 mm 0.00 in0.0 mm
08:00 PM 46.9°F8.3°C 43.3°F6.3°C 87% 1.4 mph WSW2.3 kmh WSW 3.1 mph5.0 kmh 30.61 in1036.6 mb 0.00 in0.0 mm 0.00 in0.0 mm 0.00 in0.0 mm
08:01 PM 46.9°F8.3°C 43.3°F6.3°C 87% 1.5 mph SW2.4 kmh SW 3.1 mph5.0 kmh 30.61 in1036.6 mb 0.00 in0.0 mm 0.00 in0.0 mm 0.00 in0.0 mm
08:15 PM 46.2°F7.9°C 42.9°F6.1°C 88% Calm Calm 0.7 mph1.1 kmh 30.61 in1036.6 mb 0.00 in0.0 mm 0.00 in0.0 mm 0.00 in0.0 mm
08:30 PM 45.9°F7.7°C 42.8°F6.0°C 89% Calm Calm 1.6 mph2.6 kmh 30.61 in1036.6 mb 0.00 in0.0 mm 0.00 in0.0 mm 0.00 in0.0 mm
08:45 PM 45.3°F7.4°C 42.3°F5.7°C 89% 0.5 mph NNE0.8 kmh NNE 0.7 mph1.1 kmh 30.61 in1036.6 mb 0.00 in0.0 mm 0.00 in0.0 mm 0.00 in0.0 mm
09:00 PM 45.1°F7.3°C 42.4°F5.8°C 90% 0.7 mph NW1.1 kmh NW 0.7 mph1.1 kmh 30.61 in1036.6 mb 0.00 in0.0 mm 0.00 in0.0 mm 0.00 in0.0 mm
09:15 PM 45.1°F7.3°C 42.4°F5.8°C 90% 1.2 mph NNW1.9 kmh NNW 1.6 mph2.6 kmh 30.62 in1036.9 mb 0.00 in0.0 mm 0.00 in0.0 mm 0.00 in0.0 mm
09:30 PM 45.0°F7.2°C 42.5°F5.8°C 91% 0.1 mph N0.2 kmh N 0.7 mph1.1 kmh 30.61 in1036.6 mb 0.00 in0.0 mm 0.00 in0.0 mm 0.00 in0.0 mm
09:45 PM 45.3°F7.4°C 43.1°F6.2°C 92% 0.8 mph SSE1.3 kmh SSE 1.6 mph2.6 kmh 30.62 in1036.9 mb 0.00 in0.0 mm 0.00 in0.0 mm 0.00 in0.0 mm
10:00 PM 45.5°F7.5°C 43.3°F6.3°C 92% 0.6 mph WSW1.0 kmh WSW 0.7 mph1.1 kmh 30.62 in1036.9 mb 0.00 in0.0 mm 0.00 in0.0 mm 0.00 in0.0 mm
10:15 PM 45.1°F7.3°C 43.0°F6.1°C 92% 1.4 mph N2.3 kmh N 2.2 mph3.5 kmh 30.61 in1036.6 mb 0.00 in0.0 mm 0.00 in0.0 mm 0.00 in0.0 mm
10:30 PM 45.5°F7.5°C 43.6°F6.4°C 93% 1.0 mph SW1.6 kmh SW 1.6 mph2.6 kmh 30.60 in1036.2 mb 0.00 in0.0 mm 0.00 in0.0 mm 0.00 in0.0 mm
10:45 PM 45.3°F7.4°C 43.4°F6.3°C 93% 1.5 mph N2.4 kmh N 2.2 mph3.5 kmh 30.61 in1036.6 mb 0.00 in0.0 mm 0.00 in0.0 mm 0.00 in0.0 mm
11:00 PM 45.1°F7.3°C 43.2°F6.2°C 93% 0.9 mph WSW1.4 kmh WSW 2.2 mph3.5 kmh 30.61 in1036.6 mb 0.00 in0.0 mm 0.00 in0.0 mm 0.00 in0.0 mm
11:15 PM 45.0°F7.2°C 43.1°F6.2°C 93% 1.6 mph ENE2.6 kmh ENE 1.6 mph2.6 kmh 30.61 in1036.6 mb 0.00 in0.0 mm 0.00 in0.0 mm 0.00 in0.0 mm
11:30 PM 45.0°F7.2°C 43.1°F6.2°C 93% 1.8 mph SW2.9 kmh SW 3.1 mph5.0 kmh 30.60 in1036.2 mb 0.00 in0.0 mm 0.00 in0.0 mm 0.00 in0.0 mm
11:45 PM 44.4°F6.9°C 42.8°F6.0°C 94% 0.5 mph NW0.8 kmh NW 0.7 mph1.1 kmh 30.61 in1036.6 mb 0.00 in0.0 mm 0.00 in0.0 mm 0.00 in0.0 mm